Date,TemperatureHighF,TemperatureAvgF,TemperatureLowF,DewpointHighF,DewpointAvgF,DewpointLowF,HumidityHigh,HumidityAvg,HumidityLow,PressureMaxIn,PressureMinIn,WindSpeedMaxMPH,WindSpeedAvgMPH,GustSpeedMaxMPH,PrecipitationSumIn
2013-1-1,47.3,41.0,35.6,38.4,27.3,16.3,74,59,45,30.07,30.07,8,4,10,0.04
2013-1-2,41.2,37.0,30.4,18.4,16.6,15.1,56,44,37,30.35,29.83,6,2,8,0.00
2013-1-3,48.9,38.2,24.6,20.6,16.6,13.3,73,44,26,30.47,30.32,7,2,10,0.00
2013-1-4,52.2,44.9,39.9,28.3,21.2,16.6,59,40,27,30.52,30.35,5,1,6,0.00
2013-1-5,56.5,43.8,35.6,36.8,28.0,25.0,86,56,30,30.38,30.20,9,2,9,0.00
2013-1-6,57.4,42.0,32.2,29.5,18.0,7.6,81,44,17,30.41,30.26,8,2,10,0.00
2013-1-7,57.7,42.2,26.1,25.1,18.6,12.8,61,41,24,30.32,30.08,5,1,8,0.00
2013-1-8,48.2,47.2,44.6,48.0,37.2,21.0,100,72,39,30.11,29.96,5,2,8,1.42
2013-1-9,57.2,53.7,48.2,56.8,52.5,48.2,100,96,88,30.11,29.93,8,3,10,1.30
2013-1-10,59.2,54.1,46.9,57.0,44.9,33.2,100,74,38,29.99,29.93,8,3,10,0.08
2013-1-11,70.7,58.2,45.5,58.1,41.5,35.5,80,57,28,29.96,29.76,10,5,15,0.00
2013-1-12,65.8,55.1,36.0,63.9,45.9,19.6,96,72,42,29.96,29.70,13,4,14,0.12
2013-1-13,43.5,36.2,31.8,19.4,11.8,6.6,52,37,28,30.26,29.96,10,5,12,0.00
2013-1-14,43.9,35.4,28.8,15.1,9.9,5.3,41,35,28,30.35,30.20,8,4,11,0.00
2013-1-15,37.9,34.6,30.0,24.5,16.2,8.1,74,48,32,30.23,30.17,8,3,10,0.08
2013-1-16,50.0,36.8,25.3,14.9,9.1,2.5,52,33,19,30.29,30.17,5,1,7,0.00
2013-1-17,60.3,45.3,30.2,21.8,16.8,12.0,52,33,19,30.50,30.26,7,2,10,0.00
2013-1-18,65.1,46.9,30.2,26.4,20.9,16.8,62,39,18,30.50,30.26,8,2,10,0.00
2013-1-19,68.9,51.7,38.8,36.1,29.6,22.2,79,46,22,30.26,30.14,7,3,12,0.00
2013-1-20,72.9,52.5,38.1,44.0,28.8,17.0,81,46,16,30.23,30.08,6,1,7,0.00
2013-1-21,56.1,46.9,40.1,32.2,20.2,13.4,60,36,25,30.29,30.11,6,2,10,0.00
2013-1-22,69.4,51.5,36.5,38.9,25.5,13.1,59,38,23,30.32,30.17,6,1,8,0.00
2013-1-23,77.0,60.8,47.3,46.9,40.8,34.8,82,52,23,30.29,30.11,8,4,11,0.00
2013-1-24,82.8,63.4,51.6,60.0,43.3,32.3,96,54,20,30.17,30.02,6,3,10,0.00
2013-1-25,54.1,49.7,47.8,46.1,33.1,26.1,91,54,40,30.20,30.05,6,3,8,0.00
2013-1-26,54.9,50.0,45.7,49.2,38.5,26.1,94,66,41,30.23,30.08,4,2,6,0.00
2013-1-27,76.6,63.8,50.7,62.2,51.3,42.0,100,70,31,30.08,29.91,11,4,15,0.00
2013-1-28,78.4,71.3,66.2,58.8,52.5,44.9,76,54,32,29.99,29.82,13,6,17,0.00
2013-1-29,80.4,66.3,52.9,58.5,46.9,18.9,73,52,26,29.85,29.46,13,6,19,0.24
2013-1-30,53.6,46.4,33.6,22.7,13.7,3.5,43,28,16,30.14,29.70,11,4,15,0.00
2013-1-31,70.2,49.6,28.6,21.3,14.1,7.0,54,28,12,30.29,30.08,9,3,11,0.00
2013-2-1,62.6,46.2,30.9,26.0,14.7,5.6,42,29,18,30.38,30.14,7,3,10,0.00
2013-2-2,67.1,54.5,45.1,33.9,24.0,13.0,57,33,15,30.32,30.14,6,3,9,0.00
2013-2-3,74.5,54.8,33.6,29.6,19.0,11.0,62,29,12,30.32,29.99,6,2,10,0.00
2013-2-4,75.4,62.2,53.8,48.7,36.5,12.6,73,41,17,29.99,29.79,10,3,10,0.00
2013-2-5,70.0,61.8,56.8,62.6,53.1,42.3,100,76,37,30.02,29.88,5,2,8,0.00
2013-2-6,79.3,64.7,57.4,63.3,50.2,37.6,97,65,24,30.02,29.85,10,3,11,0.00
2013-2-7,81.3,65.4,55.4,54.2,41.8,22.2,84,48,13,30.11,29.82,10,5,17,0.00
2013-2-8,66.9,53.4,42.6,31.6,20.6,11.0,50,30,12,30.23,30.11,8,3,9,0.00
2013-2-9,59.2,51.4,46.8,59.2,41.1,23.2,100,69,39,30.11,29.76,8,3,10,0.00
2013-2-10,69.3,59.2,47.5,64.9,28.6,12.1,100,39,13,29.99,29.64,9,2,14,0.51
2013-2-11,56.7,51.7,48.2,30.4,22.8,17.4,49,33,22,30.14,29.99,6,2,10,0.00
2013-2-12,52.0,48.0,42.4,46.5,38.5,29.9,89,70,50,30.02,29.85,8,3,11,0.24
2013-2-13,60.4,46.1,38.7,28.3,23.7,16.0,61,44,19,30.14,29.99,11,3,11,0.00
2013-2-14,72.0,52.1,34.3,39.2,25.3,14.3,81,43,14,30.11,29.99,6,1,8,0.00
2013-2-15,52.9,47.3,36.3,26.5,15.3,4.9,38,28,18,30.38,30.08,8,4,13,0.00
2013-2-16,59.2,43.4,27.0,16.9,13.5,8.8,53,31,17,30.41,30.17,5,1,6,0.00
2013-2-17,73.2,54.4,36.7,33.0,21.4,15.7,57,32,14,30.14,29.91,13,5,15,0.00
2013-2-18,80.1,61.8,52.0,45.3,29.0,12.9,62,33,12,30.14,29.76,12,6,16,0.00
2013-2-19,63.5,52.1,37.9,21.5,14.0,9.2,41,23,13,30.32,30.11,6,2,10,0.00
2013-2-20,51.8,45.7,42.4,33.1,27.0,18.8,64,48,27,30.17,29.76,11,3,13,0.12
2013-2-21,69.4,54.5,43.9,46.9,29.1,13.0,86,45,15,29.93,29.58,10,3,12,0.20
2013-2-22,49.8,40.2,31.6,26.3,15.0,10.7,51,36,24,30.14,29.93,7,4,10,0.00
2013-2-23,56.3,43.3,30.7,21.7,16.3,13.4,51,35,20,30.08,29.91,6,1,8,0.00
2013-2-24,72.0,54.7,34.0,33.2,24.5,16.3,60,34,17,29.93,29.61,8,3,11,0.00
2013-2-25,62.2,51.9,40.8,44.9,28.0,13.2,68,42,19,29.70,29.49,10,4,15,0.04
2013-2-26,59.2,47.1,39.2,21.6,18.6,13.3,49,33,19,29.91,29.70,10,4,15,0.00
2013-2-27,57.6,46.6,37.8,23.6,15.3,5.0,53,31,15,30.23,29.88,11,4,12,0.00
2013-2-28,59.2,47.1,35.8,18.6,13.3,5.5,43,27,17,30.29,30.17,10,4,13,0.00
2013-3-1,57.0,45.3,33.8,19.7,14.7,7.3,43,30,20,30.29,30.17,6,2,12,0.00
2013-3-2,56.1,42.7,31.6,16.5,12.7,8.5,50,31,17,30.44,30.23,8,3,10,0.00
2013-3-3,73.6,55.2,34.5,26.2,16.8,11.0,41,24,13,30.23,29.79,11,5,17,0.00
2013-3-4,88.0,68.3,54.0,34.2,28.1,21.5,43,25,10,29.79,29.61,10,6,16,0.00
2013-3-5,64.2,51.1,42.4,28.7,12.4,2.4,38,22,14,30.38,29.79,15,6,17,0.00
2013-3-6,63.0,48.0,31.1,14.2,9.2,3.4,40,22,13,30.47,30.20,5,1,8,0.00
2013-3-7,74.5,56.7,40.3,23.8,15.2,4.9,30,20,13,30.23,30.08,9,3,15,0.00
2013-3-8,63.0,59.0,54.9,51.1,42.1,23.8,70,54,33,30.17,29.99,10,4,11,0.00
2013-3-9,68.4,64.2,59.5,61.9,53.9,45.5,94,70,54,29.99,29.67,11,5,17,0.35
2013-3-10,60.8,52.4,41.2,58.2,26.9,15.5,91,40,26,30.11,29.73,13,4,15,0.98
2013-3-11,61.3,45.9,34.0,22.6,14.2,5.9,60,32,14,30.14,29.99,8,2,11,0.00
2013-3-12,70.9,53.7,36.7,19.7,15.7,11.3,40,24,14,30.32,30.02,6,2,9,0.00
2013-3-13,73.9,56.4,38.7,27.2,21.1,15.9,54,28,13,30.44,30.29,4,0,6,0.00
2013-3-14,81.0,61.0,44.1,32.1,26.9,21.1,53,30,14,30.35,30.17,8,3,15,0.00
2013-3-15,85.1,67.2,52.7,46.6,32.9,20.0,76,34,11,30.17,29.91,11,5,13,0.00
2013-3-16,84.0,69.6,56.7,46.9,39.4,32.6,69,36,20,29.91,29.70,10,6,15,0.00
2013-3-17,74.8,67.1,58.6,56.2,42.1,33.3,77,43,23,29.82,29.70,13,3,13,0.00
2013-3-18,69.6,63.3,56.7,59.9,36.6,22.7,88,41,23,29.99,29.67,9,4,14,0.00
2013-3-19,68.9,59.4,48.2,32.3,24.9,17.0,43,27,18,30.11,29.96,8,3,15,0.00
2013-3-20,69.6,58.4,46.2,24.7,18.8,11.5,38,22,13,30.29,30.02,8,2,10,0.00
2013-3-21,71.1,61.6,50.2,48.5,29.0,13.7,56,30,20,30.02,29.55,14,5,15,0.00
2013-3-22,65.5,54.6,47.1,55.1,41.6,31.6,82,62,41,29.85,29.58,8,4,13,0.00
2013-3-23,57.2,51.1,46.0,48.6,41.2,37.8,93,70,51,29.88,29.67,8,3,11,0.47
2013-3-24,53.2,45.9,38.5,43.9,17.1,4.7,78,34,18,30.17,29.85,11,7,17,0.00
2013-3-25,55.0,43.9,31.5,13.1,8.2,-0.3,42,24,15,30.41,30.17,11,3,12,0.00
2013-3-26,61.9,45.9,29.5,15.2,11.0,1.4,42,26,14,30.50,30.26,5,1,7,0.00
2013-3-27,72.9,55.9,37.4,29.8,20.3,12.1,41,27,14,30.29,30.05,15,4,17,0.00
2013-3-28,72.5,61.8,49.1,44.4,39.4,29.2,70,45,33,30.20,30.08,10,4,12,0.00
2013-3-29,79.2,67.4,59.4,49.4,44.4,38.0,68,46,23,30.20,29.99,11,5,15,0.00
2013-3-30,81.0,70.8,55.9,61.7,48.9,44.8,91,48,29,30.14,29.88,9,4,10,0.20
2013-3-31,75.6,67.6,58.1,59.9,44.5,31.8,86,47,22,29.99,29.79,8,4,10,0.00
2013-4-1,82.6,67.2,49.3,48.7,36.2,27.0,74,37,14,30.08,29.93,6,1,6,0.00
2013-4-2,69.4,65.2,54.0,59.3,49.5,31.9,83,58,34,30.02,29.85,14,4,18,0.35
2013-4-3,54.1,48.7,44.8,49.1,41.8,33.8,94,78,50,30.14,29.91,6,4,12,1.46
2013-4-4,51.1,46.4,42.1,38.8,31.6,27.2,85,58,41,30.20,30.11,8,4,10,0.00
2013-4-5,72.9,55.0,39.6,38.7,33.0,29.2,78,48,22,30.26,30.02,6,2,8,0.00
2013-4-6,77.7,64.8,54.1,49.0,40.2,33.5,61,42,25,30.02,29.85,12,6,15,0.00
2013-4-7,73.6,67.0,60.6,52.1,48.8,46.4,69,53,38,29.91,29.76,11,5,14,0.00
2013-4-8,77.2,70.9,64.8,52.7,50.0,46.8,61,48,37,29.76,29.64,15,6,17,0.00
2013-4-9,82.8,74.4,67.6,57.5,51.4,47.2,70,46,30,29.70,29.61,11,6,17,0.00
2013-4-10,73.0,47.6,39.4,58.1,33.9,24.1,76,60,41,29.96,29.70,10,5,13,0.28
2013-4-11,67.3,50.5,40.3,26.2,20.6,16.4,50,32,17,29.96,29.82,8,3,9,0.00
2013-4-12,80.6,60.0,40.5,38.7,29.9,24.6,71,37,14,29.99,29.85,5,1,8,0.00
2013-4-13,81.1,68.0,52.5,38.7,33.2,28.7,53,30,17,29.96,29.76,9,3,11,0.00
2013-4-14,85.8,70.0,54.9,55.4,45.4,36.0,70,43,26,29.79,29.55,10,5,14,0.00
2013-4-15,89.1,77.4,68.0,61.8,52.7,43.7,80,46,21,29.76,29.61,12,6,14,0.00
2013-4-16,91.0,78.4,70.2,59.7,51.5,43.9,67,42,20,29.88,29.76,10,6,13,0.00
2013-4-17,88.2,77.7,72.0,66.5,55.8,47.0,82,50,25,29.88,29.61,14,6,17,0.00
2013-4-18,76.1,55.4,46.0,66.9,34.8,19.0,82,49,26,30.14,29.55,11,7,16,1.14
2013-4-19,64.6,50.9,36.9,27.1,19.1,11.2,64,32,14,30.26,30.11,10,3,12,0.00
2013-4-20,74.3,58.0,41.0,26.2,22.0,15.7,49,28,13,30.20,29.99,10,4,15,0.00
2013-4-21,75.0,61.4,46.9,37.0,33.1,22.2,59,36,22,30.20,30.05,8,3,10,0.00
2013-4-22,82.4,67.9,51.6,47.2,39.6,34.3,73,38,21,30.08,29.85,10,4,13,0.00
2013-4-23,66.2,54.9,41.7,59.8,40.2,27.0,86,58,44,30.17,29.79,10,5,13,0.00
2013-4-24,62.1,50.1,37.6,30.3,22.8,19.6,66,37,21,30.32,30.17,8,4,11,0.00
2013-4-25,75.9,63.2,51.8,34.8,25.8,18.8,37,25,13,30.32,30.14,9,2,10,0.00
2013-4-26,78.6,67.8,60.6,58.3,42.8,29.2,67,41,29,30.14,29.96,10,3,11,0.00
2013-4-27,75.4,68.6,58.3,63.2,48.2,38.4,88,51,27,30.11,29.96,8,3,10,0.00
2013-4-28,85.8,67.6,51.3,54.4,48.8,44.8,88,55,25,30.02,29.85,5,2,6,0.00
2013-4-29,88.2,74.1,59.2,64.5,48.3,37.3,89,46,18,29.91,29.79,8,4,10,0.00
2013-4-30,86.5,71.5,59.7,59.9,49.8,43.4,87,50,23,29.82,29.73,7,3,10,0.00
2013-5-1,84.2,72.7,64.6,62.1,53.3,44.6,86,54,25,29.93,29.79,6,2,8,0.00
2013-5-2,69.6,52.5,44.2,52.7,33.7,23.0,70,49,39,30.32,29.93,12,7,17,0.00
2013-5-3,66.7,53.1,39.0,27.0,18.9,8.9,48,29,13,30.32,30.02,12,5,16,0.00
2013-5-4,74.1,58.5,37.6,31.0,21.1,12.0,72,28,12,30.02,29.88,9,3,15,0.00
2013-5-5,70.0,58.6,46.4,33.3,28.5,24.9,51,33,22,30.14,30.02,8,3,10,0.00
2013-5-6,78.1,63.9,47.5,42.3,36.0,32.3,71,39,20,30.11,29.99,5,1,8,0.00
2013-5-7,87.3,72.9,55.4,50.2,38.8,29.8,71,33,13,30.05,29.91,9,2,9,0.00
2013-5-8,88.7,75.5,61.9,44.5,39.8,36.5,51,30,18,29.99,29.85,10,4,17,0.00
2013-5-9,73.6,68.6,65.3,63.8,54.5,38.5,89,63,28,29.99,29.85,11,2,11,0.35
2013-5-10,81.3,72.6,65.7,67.2,53.4,39.5,100,58,24,30.05,29.88,8,2,8,0.00
2013-5-11,80.4,71.1,61.9,47.8,36.5,24.6,60,31,15,30.14,30.02,8,3,14,0.00
2013-5-12,81.0,68.4,58.8,41.4,28.8,19.8,46,25,12,30.26,30.11,6,2,8,0.00
2013-5-13,90.1,71.2,51.3,39.2,33.6,26.4,52,28,12,30.23,30.08,8,4,10,0.00
2013-5-14,88.7,74.7,57.9,50.3,42.4,34.7,71,35,15,30.14,29.96,11,4,14,0.00
2013-5-15,77.7,72.4,63.7,65.5,58.3,49.2,82,62,44,30.02,29.73,12,5,12,0.83
2013-5-16,86.0,72.1,62.4,64.3,59.7,55.2,94,69,35,29.82,29.73,9,4,11,0.00
2013-5-17,92.7,81.0,72.0,69.6,61.2,53.7,89,56,28,29.85,29.76,10,4,15,0.00
2013-5-18,95.0,82.3,71.6,63.1,57.5,52.5,71,46,25,29.88,29.76,11,6,13,0.00
2013-5-19,90.7,80.7,70.2,60.7,54.3,51.6,71,42,27,29.82,29.67,13,7,17,0.00
2013-5-20,92.1,81.2,72.5,61.3,56.0,50.9,68,44,25,29.82,29.64,13,7,27,0.00
2013-5-21,83.5,72.4,59.0,62.5,56.4,49.0,83,59,37,29.88,29.64,11,5,17,0.28
2013-5-22,88.7,70.9,53.2,64.6,49.4,38.6,95,56,18,29.93,29.82,5,1,6,0.00
2013-5-23,87.1,78.0,69.4,70.3,59.7,53.2,90,56,34,30.05,29.85,8,3,10,0.00
2013-5-24,87.3,77.4,66.7,68.8,60.2,51.7,84,58,33,30.14,29.96,8,2,13,0.31
2013-5-25,85.8,73.6,66.7,66.7,61.6,55.0,87,69,36,30.14,30.02,8,2,12,0.08
2013-5-26,90.0,79.3,71.2,68.7,60.6,52.9,90,57,30,30.05,29.91,10,5,15,0.00
2013-5-27,90.1,78.9,70.5,63.7,56.9,51.3,78,49,28,29.96,29.79,10,6,13,0.00
2013-5-28,87.1,79.2,71.1,61.7,55.2,49.7,71,46,29,29.88,29.73,14,6,15,0.00
2013-5-29,86.9,76.8,71.8,68.8,61.1,55.6,86,60,35,29.79,29.70,11,6,19,0.55
2013-5-30,91.0,81.3,72.9,66.4,60.0,53.9,75,51,29,29.79,29.67,11,6,19,0.00
2013-5-31,92.8,82.7,75.4,66.5,61.0,53.6,74,50,28,29.82,29.67,11,6,15,0.00
2013-6-1,91.8,80.8,76.1,67.8,59.5,50.4,69,50,29,29.93,29.70,12,5,17,0.08
2013-6-2,84.7,76.4,67.3,55.3,40.9,27.8,48,30,13,30.05,29.91,8,3,10,0.00
2013-6-3,93.4,78.2,62.2,52.0,43.9,36.1,62,33,14,29.99,29.82,6,2,8,0.00
2013-6-4,95.0,81.8,69.3,59.5,52.2,43.1,67,39,18,29.96,29.76,12,4,14,0.00
2013-6-5,96.3,82.5,71.4,62.6,53.5,42.8,70,40,17,29.91,29.73,8,3,14,0.00
2013-6-6,79.2,73.8,68.4,67.1,58.8,51.4,91,62,38,29.93,29.79,10,2,11,0.83
2013-6-7,85.3,73.1,62.8,61.6,47.9,35.5,85,48,18,29.99,29.88,6,2,8,0.00
2013-6-8,93.4,78.0,60.3,57.8,47.4,40.4,80,39,18,29.93,29.76,8,2,9,0.00
2013-6-9,90.1,78.4,67.8,67.2,57.0,47.8,96,52,27,29.93,29.82,8,3,10,0.31
2013-6-10,102.7,84.2,68.0,66.5,52.0,32.6,81,42,9,29.96,29.88,8,2,10,0.00
2013-6-11,96.4,84.4,72.0,70.2,57.8,46.4,85,45,19,29.99,29.91,10,4,13,0.00
2013-6-12,98.6,85.4,72.9,70.4,57.8,44.1,83,45,17,30.05,29.91,9,4,11,0.00
2013-6-13,103.6,87.0,71.2,68.0,55.2,44.8,79,39,15,30.02,29.88,6,3,8,0.00
2013-6-14,99.9,85.0,71.1,68.8,57.1,47.2,76,45,18,29.99,29.85,4,1,9,0.24
2013-6-15,96.3,83.6,74.3,69.3,60.7,51.2,78,50,27,29.99,29.85,6,2,9,0.00
2013-6-16,101.1,86.8,73.9,67.6,57.2,43.6,80,43,16,29.99,29.85,6,2,9,0.00
2013-6-17,97.7,83.4,68.4,76.9,61.5,53.2,96,52,24,30.02,29.85,6,3,13,0.75
2013-6-18,87.6,77.5,70.5,68.3,61.2,52.6,85,60,31,29.99,29.88,8,2,10,0.55
2013-6-19,95.9,81.0,69.6,73.4,62.1,53.6,92,57,27,29.96,29.85,5,2,8,0.00
2013-6-20,97.5,85.4,74.5,65.9,57.2,44.9,71,43,17,30.02,29.91,10,4,10,0.00
2013-6-21,98.2,86.2,73.2,67.8,55.3,43.7,78,39,17,30.05,29.93,9,4,11,0.00
2013-6-22,98.2,86.0,71.6,63.9,54.2,45.1,70,37,17,30.02,29.85,10,4,11,0.00
2013-6-23,98.4,86.8,75.2,65.6,54.8,44.5,70,37,17,29.96,29.85,10,4,14,0.00
2013-6-24,99.0,86.3,74.5,66.1,54.2,43.8,72,37,16,29.99,29.85,9,4,13,0.00
2013-6-25,99.7,87.9,76.1,63.9,53.0,42.1,65,34,16,29.96,29.82,12,5,14,0.00
2013-6-26,101.8,86.7,75.2,64.1,54.8,45.0,68,37,16,29.93,29.82,12,4,12,0.00
2013-6-27,105.4,89.3,75.4,66.6,55.2,44.4,70,35,14,29.99,29.85,6,3,10,0.00
2013-6-28,103.5,88.8,74.3,55.8,48.7,39.4,49,28,12,29.93,29.79,6,2,10,0.00
2013-6-29,97.9,86.7,72.5,59.6,47.3,32.9,61,30,11,29.88,29.79,5,2,8,0.00
2013-6-30,92.1,82.8,72.3,55.0,42.8,31.4,53,27,12,29.93,29.79,10,3,10,0.00
2013-7-1,87.6,78.3,67.8,48.6,41.2,35.3,49,28,16,30.02,29.91,8,3,9,0.00
2013-7-2,89.1,78.1,65.1,46.5,38.1,28.1,48,27,13,30.08,29.99,8,2,8,0.00
2013-7-3,95.7,79.8,63.1,46.7,38.2,25.6,49,26,9,30.05,29.91,4,1,8,0.00
2013-7-4,99.9,83.8,68.2,54.5,43.6,30.8,56,28,10,29.99,29.88,6,2,11,0.00
2013-7-5,100.4,85.9,68.5,53.8,42.8,31.1,52,26,10,29.99,29.85,5,2,8,0.00
2013-7-6,99.9,85.0,69.3,54.8,45.8,32.6,55,29,10,29.93,29.85,6,2,8,0.00
2013-7-7,100.0,87.0,72.0,62.0,50.9,42.8,66,32,15,29.99,29.88,6,2,8,0.00
2013-7-8,101.7,85.6,75.0,66.6,56.7,46.5,69,41,16,30.08,29.96,9,3,9,0.00
2013-7-9,103.3,88.3,74.5,66.0,48.9,32.8,69,31,9,30.11,29.93,8,3,9,0.00
2013-7-10,106.2,92.2,78.4,63.4,49.1,33.4,59,27,9,30.05,29.88,8,2,8,0.00
2013-7-11,104.7,87.2,76.6,63.7,54.0,44.1,64,35,14,29.96,29.88,6,2,11,0.00
2013-7-12,104.9,87.7,73.2,66.2,55.0,38.7,74,39,12,29.96,29.85,4,1,8,0.00
2013-7-13,102.9,89.9,79.0,59.9,50.8,41.2,52,29,14,29.99,29.85,5,2,9,0.00
2013-7-14,82.9,72.5,68.0,66.0,56.9,40.0,85,62,22,30.02,29.88,5,1,7,0.47
2013-7-15,73.6,70.1,66.6,71.8,67.4,63.3,97,91,75,30.05,29.93,3,1,6,1.10
2013-7-16,90.7,77.6,70.9,71.3,64.9,53.9,93,69,30,30.17,30.05,6,2,12,0.04
2013-7-17,90.1,78.0,71.4,69.3,65.1,57.7,89,67,34,30.20,30.11,5,1,10,0.08
2013-7-18,96.4,81.3,71.1,74.8,64.0,53.2,97,62,24,30.17,29.99,5,1,8,0.00
2013-7-19,101.1,84.4,72.9,71.7,60.9,48.3,86,51,18,30.02,29.91,6,2,10,0.00
2013-7-20,99.3,82.9,72.5,70.9,60.7,47.9,83,52,18,29.96,29.85,6,2,8,0.00
2013-7-21,101.8,85.9,72.5,73.9,61.0,46.7,91,50,17,29.91,29.82,8,3,10,0.00
2013-7-22,100.8,87.9,75.6,72.5,61.1,48.5,87,47,18,29.96,29.82,9,4,10,0.00
2013-7-23,102.0,88.9,77.4,70.4,59.5,46.8,76,41,17,29.96,29.79,9,4,10,0.00
2013-7-24,99.5,86.6,76.6,65.6,56.5,43.6,68,39,17,30.02,29.85,8,3,9,0.00
2013-7-25,97.7,84.9,74.5,65.5,60.4,50.8,71,46,25,30.02,29.93,6,2,9,0.00
2013-7-26,100.0,84.3,77.5,68.0,61.8,50.6,69,50,20,29.99,29.85,6,3,11,0.04
2013-7-27,91.4,80.9,73.4,65.0,54.1,41.9,68,43,19,29.99,29.88,8,3,10,0.00
2013-7-28,97.5,81.7,66.7,71.7,58.2,48.2,91,50,19,29.96,29.85,4,2,8,0.00
2013-7-29,100.4,86.1,76.1,70.1,58.8,43.5,79,45,17,29.96,29.88,9,4,11,0.00
2013-7-30,102.6,88.5,77.4,65.5,55.1,44.9,66,36,16,30.05,29.93,7,4,11,0.00
2013-7-31,106.9,90.5,77.2,62.1,51.8,44.4,54,30,14,30.05,29.88,6,3,8,0.00
2013-8-1,104.4,91.5,76.1,61.9,53.6,45.2,61,30,15,29.99,29.85,5,1,8,0.00
2013-8-2,105.8,91.6,77.7,62.2,52.2,38.9,59,30,12,29.93,29.85,8,3,9,0.00
2013-8-3,104.4,89.9,76.6,61.2,51.8,39.1,56,30,12,29.99,29.91,6,3,9,0.00
2013-8-4,104.0,89.5,75.7,68.0,54.7,44.1,72,35,14,30.05,29.91,6,2,9,0.00
2013-8-5,105.3,90.4,77.9,62.1,51.1,38.6,58,30,12,29.99,29.82,6,3,9,0.00
2013-8-6,106.0,91.1,77.0,62.9,49.9,34.1,60,28,10,29.91,29.79,8,4,11,0.00
2013-8-7,107.4,91.9,77.9,62.6,51.2,39.7,59,29,11,29.88,29.73,9,4,10,0.00
2013-8-8,106.2,90.0,77.0,66.2,52.6,39.8,69,32,12,29.88,29.76,11,3,11,0.00
2013-8-9,107.4,91.0,78.8,62.1,49.2,32.1,54,28,9,29.96,29.82,6,3,9,0.00
2013-8-10,98.1,87.1,75.9,70.0,57.6,45.7,79,41,18,30.05,29.93,6,2,9,0.00
2013-8-11,103.5,88.6,73.2,66.1,55.3,44.3,72,37,14,30.05,29.91,6,2,6,0.00
2013-8-12,103.5,89.0,75.0,65.7,54.4,44.0,68,35,15,30.05,29.91,5,2,8,0.00
2013-8-13,103.1,85.1,77.0,67.0,57.7,47.5,68,42,16,29.99,29.88,9,2,15,0.59
2013-8-14,91.2,79.2,74.3,73.2,67.3,56.4,91,69,31,30.02,29.93,6,2,17,1.06
2013-8-15,90.0,79.1,72.1,65.4,56.0,50.4,69,48,27,30.05,29.93,6,2,10,0.00
2013-8-16,88.7,78.3,69.6,60.2,51.9,44.7,71,42,22,30.05,29.93,6,2,10,0.00
2013-8-17,90.1,78.3,66.4,54.5,46.8,38.8,64,36,18,30.08,29.96,10,2,11,0.00
2013-8-18,92.5,80.4,68.7,57.3,49.1,41.1,67,36,18,30.08,29.96,5,1,7,0.00
2013-8-19,97.9,83.6,71.8,54.7,47.6,37.6,52,32,13,30.05,29.91,6,1,8,0.00
2013-8-20,99.3,84.2,68.9,57.7,45.9,32.1,63,30,10,30.02,29.93,5,1,8,0.00
2013-8-21,99.9,84.6,71.2,62.0,51.7,43.6,68,36,16,30.08,29.96,5,2,8,0.00
2013-8-22,102.6,87.2,73.6,66.8,54.0,44.4,70,36,15,30.08,29.91,5,2,8,0.00
2013-8-23,102.2,89.3,76.6,64.3,53.4,40.1,61,33,13,30.02,29.88,6,2,8,0.00
2013-8-24,99.9,88.4,74.8,60.7,52.0,39.8,59,32,13,30.05,29.93,8,2,9,0.00
2013-8-25,99.0,87.1,73.9,63.4,52.3,43.6,67,33,16,30.11,30.02,6,2,10,0.00
2013-8-26,97.3,85.2,74.8,62.6,52.9,40.8,64,37,16,30.14,30.02,10,3,10,0.00
2013-8-27,96.4,81.4,72.1,68.3,59.5,47.5,82,52,19,30.11,29.99,8,3,13,0.00
2013-8-28,103.5,85.0,69.1,67.5,53.6,38.7,82,43,12,30.08,29.96,6,1,8,0.00
2013-8-29,104.9,88.2,70.9,61.2,49.7,34.9,69,31,10,30.05,29.93,5,1,7,0.00
2013-8-30,104.5,89.8,73.8,56.4,46.7,33.1,50,26,9,29.99,29.85,5,1,6,0.00
2013-8-31,106.3,90.4,75.9,57.6,46.0,33.0,50,25,9,29.91,29.79,4,2,6,0.00
2013-9-1,106.7,91.4,76.5,60.3,48.0,33.8,57,26,9,29.88,29.76,6,3,8,0.00
2013-9-2,93.9,82.8,75.4,70.9,60.6,50.0,80,50,24,29.99,29.82,4,1,6,0.12
2013-9-3,98.2,86.4,75.4,63.6,50.2,36.6,59,32,14,29.99,29.88,6,2,8,0.00
2013-9-4,101.8,87.5,72.5,56.8,49.1,34.2,53,30,10,30.02,29.91,5,1,8,0.00
2013-9-5,100.8,87.7,73.9,65.5,53.2,33.0,71,35,10,30.08,29.96,5,1,6,0.00
2013-9-6,102.4,87.8,74.5,62.3,51.0,38.6,62,32,12,30.08,29.93,6,1,8,0.00
2013-9-7,101.8,87.0,74.1,62.4,50.8,38.4,63,33,12,30.02,29.91,8,2,10,0.00
2013-9-8,100.2,84.2,69.4,65.1,53.1,41.0,79,40,15,29.96,29.85,7,2,8,0.00
2013-9-9,97.2,84.1,69.1,63.7,52.7,42.0,74,38,17,29.99,29.88,8,3,10,0.00
2013-9-10,95.5,82.9,73.0,66.8,53.7,37.9,76,42,14,30.08,29.96,6,2,9,0.00
2013-9-11,98.1,82.9,69.3,65.0,54.2,43.4,75,41,16,30.11,29.99,6,2,10,0.00
2013-9-12,99.3,84.9,71.2,61.9,53.1,43.2,71,38,16,30.05,29.91,6,2,8,0.00
2013-9-13,97.9,86.2,74.3,61.0,51.9,43.2,62,34,16,29.96,29.82,7,2,9,0.00
2013-9-14,94.3,84.7,75.9,54.7,48.4,42.0,46,30,17,29.96,29.85,6,3,9,0.00
2013-9-15,97.2,84.9,72.7,57.7,49.6,42.5,58,31,17,30.02,29.91,6,2,9,0.00
2013-9-16,96.4,85.0,72.3,61.4,50.0,40.8,63,33,16,30.08,29.93,5,1,8,0.00
2013-9-17,95.4,84.7,74.5,56.2,49.3,42.2,50,31,17,30.05,29.93,7,1,8,0.00
2013-9-18,100.0,86.5,75.6,60.1,49.1,38.0,57,31,13,30.02,29.85,9,3,11,0.00
2013-9-19,92.1,82.2,72.3,71.2,58.3,48.0,94,48,27,29.99,29.85,5,2,12,0.71
2013-9-20,74.1,72.6,70.7,73.6,69.7,61.2,100,91,72,29.93,29.82,8,3,9,4.57
2013-9-21,83.1,71.8,62.1,60.0,40.9,27.4,73,39,14,29.96,29.85,8,3,11,0.00
2013-9-22,84.9,70.4,56.5,54.5,42.8,32.0,79,42,16,29.93,29.79,4,1,8,0.00
2013-9-23,89.6,73.3,57.2,48.9,42.5,30.0,69,38,13,29.88,29.73,5,2,8,0.00
2013-9-24,92.8,77.8,64.6,59.8,45.6,28.4,77,39,12,29.93,29.82,4,1,8,0.00
2013-9-25,97.9,77.3,57.2,58.4,41.4,29.4,82,36,11,29.91,29.76,4,1,7,0.00
2013-9-26,97.0,80.9,67.8,50.2,41.4,30.9,47,27,11,29.88,29.79,8,3,10,0.00
2013-9-27,90.7,80.0,68.7,61.8,57.0,48.7,72,47,32,29.93,29.82,7,3,13,0.00
2013-9-28,86.7,76.3,67.3,73.0,65.7,58.3,94,70,47,30.02,29.85,8,4,9,1.50
2013-9-29,81.7,71.7,63.5,58.1,44.9,30.4,72,43,17,30.05,29.91,6,3,9,0.00
2013-9-30,90.5,71.8,56.8,55.6,47.7,36.1,84,50,15,29.93,29.82,5,1,6,0.00
2013-10-1,93.0,76.1,63.0,69.6,57.1,43.3,92,58,19,29.93,29.82,5,2,7,0.00
2013-10-2,92.1,79.6,72.0,71.4,62.6,54.2,94,60,28,29.96,29.85,6,3,9,0.00
2013-10-3,93.0,80.4,72.5,70.9,61.3,50.9,88,57,24,29.91,29.79,8,4,10,0.00
2013-10-4,90.9,80.5,72.3,68.1,59.6,52.2,86,53,28,29.91,29.82,9,4,11,0.00
2013-10-5,77.9,64.6,51.8,67.2,50.1,30.1,90,62,33,30.11,29.85,8,4,13,0.24
2013-10-6,75.2,61.6,49.5,49.8,33.5,17.7,89,46,13,30.11,30.02,9,2,11,0.04
2013-10-7,81.5,63.8,46.4,46.9,32.5,20.5,76,38,12,30.14,30.05,5,1,8,0.00
2013-10-8,84.9,66.7,49.1,43.1,35.4,26.1,68,37,13,30.08,29.96,4,1,8,0.00
2013-10-9,87.6,70.0,55.0,53.6,43.0,36.0,80,43,18,30.05,29.96,10,2,10,0.00
2013-10-10,85.3,70.0,59.0,61.8,50.4,44.2,86,53,28,30.05,29.88,6,2,9,0.00
2013-10-11,87.8,77.0,69.1,63.5,58.8,53.4,76,56,32,29.93,29.82,8,4,12,0.00
2013-10-12,97.3,79.2,69.8,73.5,63.4,53.2,91,62,27,30.05,29.88,6,3,12,0.00
2013-10-13,77.0,71.5,67.6,66.5,61.5,57.9,89,71,52,30.20,30.05,4,1,8,0.00
2013-10-14,75.6,71.5,69.3,73.9,69.1,63.3,100,93,78,30.11,29.91,8,2,11,0.47
2013-10-15,77.7,66.5,54.0,71.3,62.8,52.3,95,88,61,30.08,29.91,8,4,10,0.12
2013-10-16,64.2,58.2,53.1,54.2,43.5,34.7,95,63,35,30.11,29.99,6,3,10,0.12
2013-10-17,74.1,58.9,45.7,43.5,36.2,29.5,80,47,21,30.14,29.96,4,1,7,0.12
2013-10-18,72.7,61.0,51.3,50.2,44.1,37.7,82,57,28,30.11,29.91,9,2,13,0.12
2013-10-19,65.3,52.6,41.7,42.5,30.8,23.6,75,47,23,30.23,30.08,8,3,10,0.12
2013-10-20,73.8,56.7,40.3,45.0,34.0,28.8,86,48,21,30.08,29.91,7,3,10,0.12
2013-10-21,74.7,61.0,52.3,54.8,45.0,38.2,83,57,39,30.14,29.91,8,3,8,0.12
2013-10-22,76.3,59.1,43.7,40.4,33.6,23.7,76,45,15,30.20,30.05,4,1,5,0.12
2013-10-23,83.5,62.4,46.9,45.9,37.3,27.3,73,45,14,30.17,30.05,5,1,5,0.12
2013-10-24,71.2,53.8,48.2,42.6,40.6,33.6,76,64,32,30.29,30.11,4,2,8,0.12
2013-10-25,71.8,59.4,53.1,40.8,37.4,32.1,63,45,26,30.44,30.26,5,2,9,0.12
2013-10-26,78.4,64.7,56.7,59.0,47.6,39.5,95,56,35,30.29,30.08,9,4,13,0.12
2013-10-27,70.0,63.2,59.4,60.4,54.1,46.4,100,75,45,30.17,30.05,4,1,6,0.00
2013-10-28,78.1,67.0,55.0,66.7,59.0,51.1,100,77,51,30.17,30.05,6,2,11,0.00
2013-10-29,77.7,71.9,68.9,66.1,63.7,60.1,89,76,55,30.14,30.05,8,4,10,0.00
2013-10-30,72.9,69.6,66.4,70.9,65.4,63.3,100,87,77,30.08,29.88,10,4,10,0.00
2013-10-31,67.8,57.9,52.2,43.5,39.9,36.8,72,53,32,29.96,29.91,2,0,6,0.00
2013-11-1,78.4,62.0,47.8,51.4,40.6,31.3,86,51,21,30.17,29.88,8,2,12,0.00
2013-11-2,67.1,57.3,46.0,37.8,30.2,20.5,62,38,17,30.38,30.17,8,2,10,0.00
2013-11-3,70.2,55.4,40.8,42.0,34.4,28.9,77,50,23,30.29,30.08,10,3,10,2.20
2013-11-4,60.6,58.1,53.1,60.6,53.4,42.6,100,85,56,30.20,30.08,8,2,9,0.79
2013-11-5,69.8,65.7,60.6,67.5,64.4,60.6,100,96,87,30.14,30.02,6,3,9,0.12
2013-11-6,70.2,56.4,45.5,66.1,41.1,27.7,87,59,33,30.47,30.08,9,4,12,0.08
2013-11-7,63.3,50.1,37.0,34.9,28.3,21.9,79,47,21,30.61,30.47,5,1,6,0.00
2013-11-8,68.2,53.9,39.2,45.5,33.0,26.6,82,49,23,30.50,30.26,8,2,10,0.00
2013-11-9,72.5,61.4,54.9,42.7,38.3,34.0,53,43,31,30.35,30.26,8,3,10,0.00
2013-11-10,66.6,57.6,48.9,43.5,39.6,37.0,75,52,35,30.50,30.35,4,0,4,0.00
2013-11-11,76.5,58.9,43.7,51.0,42.2,37.9,88,59,26,30.44,30.32,4,0,5,0.00
2013-11-12,60.3,50.0,37.0,48.4,24.6,5.5,70,40,18,30.85,30.44,13,5,13,0.00
2013-11-13,53.4,40.3,28.8,18.0,13.7,8.8,57,36,21,30.85,30.56,4,1,5,0.00
2013-11-14,63.5,49.4,31.1,36.7,21.4,14.8,59,36,16,30.56,30.23,8,3,8,0.00
2013-11-15,75.6,60.7,54.7,52.7,43.9,36.7,82,57,27,30.23,30.08,6,6,6,0.00
2013-11-16,80.6,69.9,61.9,64.4,55.4,48.0,84,63,32,30.11,29.93,10,5,13,0.00
2013-11-17,88.2,75.0,64.2,68.0,45.1,24.0,91,44,10,30.29,29.96,8,3,11,0.00
2013-11-18,71.4,63.9,56.5,24.2,18.5,15.3,24,17,14,30.47,30.29,6,3,8,0.00
2013-11-19,70.2,61.0,54.5,29.8,23.7,15.7,36,25,14,30.47,30.32,8,3,8,0.00
2013-11-20,66.7,57.8,46.9,46.2,34.2,26.9,56,41,31,30.35,30.20,6,2,8,0.00
2013-11-21,75.6,65.0,42.4,69.1,59.4,36.7,100,83,59,30.56,30.29,8,3,14,0.39
2013-11-22,41.5,35.5,34.5,35.2,30.8,26.8,94,83,70,30.82,30.56,9,5,15,0.08
2013-11-23,41.9,37.9,35.8,37.2,29.5,18.3,100,74,47,30.91,30.79,9,4,10,0.08
2013-11-24,36.1,34.6,33.4,19.1,16.0,12.3,54,46,40,30.97,30.76,8,3,9,0.00
2013-11-25,37.6,35.0,32.5,36.1,30.4,17.3,97,84,49,30.76,30.56,6,1,9,0.67
2013-11-26,51.8,41.8,35.4,34.3,24.7,14.1,95,57,27,30.82,30.56,9,6,13,0.00
2013-11-27,46.4,36.3,28.6,15.2,10.0,1.9,51,35,19,30.91,30.79,8,3,12,0.00
2013-11-28,56.5,38.7,25.3,23.8,16.4,11.2,61,42,20,30.91,30.82,8,2,9,0.00
2013-11-29,61.9,43.6,27.5,33.8,24.2,15.8,70,48,25,30.97,30.82,6,1,9,0.00
2013-11-30,68.5,52.6,39.6,47.7,37.8,28.2,84,60,33,30.85,30.64,8,4,11,0.00
2013-12-1,69.4,59.1,51.1,60.6,50.5,46.1,100,76,46,30.67,30.44,10,3,11,0.00
2013-12-2,72.3,54.5,39.9,56.1,40.7,28.7,100,67,23,30.41,30.20,4,1,6,0.00
2013-12-3,76.6,57.6,42.6,44.4,32.8,24.3,86,47,15,30.20,30.05,6,1,8,0.00
2013-12-4,81.5,62.3,49.1,49.5,39.0,29.6,70,45,24,30.41,30.11,6,3,9,0.00
2013-12-5,50.7,35.2,28.9,28.5,19.1,11.5,88,54,36,30.70,30.41,10,6,15,0.00
2013-12-6,32.5,27.5,24.4,30.5,19.7,12.9,97,73,57,31.06,30.64,6,0,6,0.16
2013-12-7,26.1,23.5,20.8,22.7,13.7,7.2,89,66,55,31.06,30.85,0,0,0,0.00
2013-12-8,34.7,30.2,25.5,30.2,25.2,21.1,90,82,70,30.79,30.61,0,0,0,0.16
2013-12-9,33.4,32.2,29.5,31.8,24.5,12.6,100,75,49,30.97,30.70,6,0,9,0.04
2013-12-10,38.5,28.2,20.1,18.3,11.8,7.2,69,51,34,31.06,30.88,8,2,10,0.28
2013-12-11,46.9,35.0,24.3,28.2,20.9,16.8,78,58,37,31.15,30.85,6,1,7,0.12
2013-12-12,50.7,38.1,26.2,27.7,23.2,18.7,79,56,36,31.17,30.88,4,0,5,0.00
2013-12-13,46.9,43.7,39.7,46.9,35.7,25.6,100,75,53,30.85,30.38,8,3,11,0.04
2013-12-14,46.9,41.2,29.5,46.9,32.1,18.4,100,73,42,30.91,30.35,10,4,13,0.00
2013-12-15,62.8,42.2,25.2,34.3,23.6,18.4,84,54,19,30.94,30.79,5,1,6,0.00
2013-12-16,68.5,48.7,32.7,33.5,28.5,25.3,83,51,22,30.82,30.73,6,3,8,0.00
2013-12-17,70.3,50.6,34.7,35.3,28.3,23.0,79,47,19,30.88,30.76,4,1,5,0.00
2013-12-18,71.8,53.9,37.0,41.2,34.8,29.6,82,53,22,30.85,30.58,10,4,12,0.00
2013-12-19,73.4,62.0,52.2,59.1,49.6,41.9,87,66,40,30.58,30.32,16,6,17,0.00
2013-12-20,69.1,56.0,34.7,59.3,49.4,34.7,100,79,60,30.44,30.35,15,4,16,0.00
2013-12-21,55.6,44.0,34.5,55.4,42.8,34.5,100,96,75,30.38,30.14,6,1,8,1.38
2013-12-22,46.0,37.9,31.1,46.0,26.0,19.4,100,64,41,30.97,30.35,9,4,12,0.00
2013-12-23,47.7,34.9,25.2,24.9,20.5,17.4,82,58,32,31.12,30.94,4,1,4,0.00
2013-12-24,54.9,39.7,25.0,27.4,23.9,19.4,84,56,31,31.12,30.82,8,3,11,0.00
2013-12-25,60.3,44.5,33.4,35.6,28.2,20.6,76,55,29,31.00,30.82,6,2,10,0.00
2013-12-26,53.6,40.9,31.1,31.4,26.0,21.1,86,60,28,31.03,30.91,4,1,6,0.00
2013-12-27,60.6,50.7,40.3,32.1,28.3,24.2,67,44,26,30.51,30.39,3,0,6,0.00
2013-12-28,63.5,47.4,33.1,44.5,30.9,26.1,88,57,28,30.39,30.03,8,2,11,0.00
2013-12-29,50.2,38.5,30.6,42.9,28.1,18.4,89,67,50,30.36,30.00,10,4,13,0.00
2013-12-30,43.5,34.7,28.4,18.1,11.9,8.6,57,39,28,30.48,30.33,6,2,8,0.00
2013-12-31,57.4,39.6,24.8,22.3,17.1,11.7,63,42,22,30.51,30.30,6,2,8,0.00
2014-1-1,70.2,49.2,33.3,36.2,27.0,18.6,68,45,25,30.30,29.95,10,5,15,0.00
2014-1-2,42.8,32.4,24.6,16.7,10.2,7.1,52,40,28,30.57,30.30,12,4,14,0.00